sensor_id;sensor_type;location;lat;lon;timestamp;temperature;humidity
17740;DHT22;8990;33.226;-97.150;2022-09-09T00:01:28;30.90;99.90
17740;DHT22;8990;33.226;-97.150;2022-09-09T00:04:03;30.90;99.90
17740;DHT22;8990;33.226;-97.150;2022-09-09T00:06:44;30.90;99.90
17740;DHT22;8990;33.226;-97.150;2022-09-09T00:09:17;30.90;99.90
17740;DHT22;8990;33.226;-97.150;2022-09-09T00:11:52;30.80;99.90
17740;DHT22;8990;33.226;-97.150;2022-09-09T00:14:29;30.80;99.90
17740;DHT22;8990;33.226;-97.150;2022-09-09T00:17:02;30.80;99.90
17740;DHT22;8990;33.226;-97.150;2022-09-09T00:19:38;30.70;99.90
17740;DHT22;8990;33.226;-97.150;2022-09-09T00:22:16;30.60;99.90
17740;DHT22;8990;33.226;-97.150;2022-09-09T00:24:49;30.50;99.90
17740;DHT22;8990;33.226;-97.150;2022-09-09T00:27:26;30.40;99.90
17740;DHT22;8990;33.226;-97.150;2022-09-09T00:30:12;30.30;99.90
17740;DHT22;8990;33.226;-97.150;2022-09-09T00:32:44;30.20;99.90
17740;DHT22;8990;33.226;-97.150;2022-09-09T00:35:18;30.20;99.90
17740;DHT22;8990;33.226;-97.150;2022-09-09T00:37:53;30.20;99.90
17740;DHT22;8990;33.226;-97.150;2022-09-09T00:40:27;30.20;99.90
17740;DHT22;8990;33.226;-97.150;2022-09-09T00:43:13;30.10;99.90
17740;DHT22;8990;33.226;-97.150;2022-09-09T00:45:56;30.10;99.90
17740;DHT22;8990;33.226;-97.150;2022-09-09T00:48:34;30.10;99.90
17740;DHT22;8990;33.226;-97.150;2022-09-09T00:51:10;30.00;99.90
17740;DHT22;8990;33.226;-97.150;2022-09-09T00:54:18;30.00;99.90
17740;DHT22;8990;33.226;-97.150;2022-09-09T00:57:04;29.90;99.90
17740;DHT22;8990;33.226;-97.150;2022-09-09T00:59:45;29.80;99.90
17740;DHT22;8990;33.226;-97.150;2022-09-09T01:02:31;29.70;99.90
17740;DHT22;8990;33.226;-97.150;2022-09-09T01:05:11;29.60;99.90
17740;DHT22;8990;33.226;-97.150;2022-09-09T01:07:45;29.50;99.90
17740;DHT22;8990;33.226;-97.150;2022-09-09T01:10:25;29.50;99.90
17740;DHT22;8990;33.226;-97.150;2022-09-09T01:13:01;29.40;99.90
17740;DHT22;8990;33.226;-97.150;2022-09-09T01:15:35;29.30;99.90
17740;DHT22;8990;33.226;-97.150;2022-09-09T01:18:06;29.20;99.90
17740;DHT22;8990;33.226;-97.150;2022-09-09T01:20:47;29.20;99.90
17740;DHT22;8990;33.226;-97.150;2022-09-09T01:23:41;29.10;99.90
17740;DHT22;8990;33.226;-97.150;2022-09-09T01:26:32;29.00;99.90
17740;DHT22;8990;33.226;-97.150;2022-09-09T01:29:08;29.00;99.90
17740;DHT22;8990;33.226;-97.150;2022-09-09T01:31:51;29.00;99.90
17740;DHT22;8990;33.226;-97.150;2022-09-09T01:34:22;28.90;99.90
17740;DHT22;8990;33.226;-97.150;2022-09-09T01:36:57;28.80;99.90
17740;DHT22;8990;33.226;-97.150;2022-09-09T01:39:28;28.70;99.90
17740;DHT22;8990;33.226;-97.150;2022-09-09T01:42:06;28.70;99.90
17740;DHT22;8990;33.226;-97.150;2022-09-09T01:44:38;28.60;99.90
17740;DHT22;8990;33.226;-97.150;2022-09-09T01:47:08;28.60;99.90
17740;DHT22;8990;33.226;-97.150;2022-09-09T01:50:01;28.70;99.90
17740;DHT22;8990;33.226;-97.150;2022-09-09T01:52:31;28.60;99.90
17740;DHT22;8990;33.226;-97.150;2022-09-09T01:55:05;28.60;99.90
17740;DHT22;8990;33.226;-97.150;2022-09-09T01:57:46;28.70;99.90
17740;DHT22;8990;33.226;-97.150;2022-09-09T02:00:19;28.70;99.90
17740;DHT22;8990;33.226;-97.150;2022-09-09T02:03:00;28.70;99.90
17740;DHT22;8990;33.226;-97.150;2022-09-09T02:05:45;28.70;99.90
17740;DHT22;8990;33.226;-97.150;2022-09-09T02:08:28;28.70;99.90
17740;DHT22;8990;33.226;-97.150;2022-09-09T02:11:07;28.60;99.90
17740;DHT22;8990;33.226;-97.150;2022-09-09T02:13:52;28.60;99.90
17740;DHT22;8990;33.226;-97.150;2022-09-09T02:16:26;28.60;99.90
17740;DHT22;8990;33.226;-97.150;2022-09-09T02:19:01;28.60;99.90
17740;DHT22;8990;33.226;-97.150;2022-09-09T02:21:46;28.50;99.90
17740;DHT22;8990;33.226;-97.150;2022-09-09T02:24:16;28.40;99.90
17740;DHT22;8990;33.226;-97.150;2022-09-09T02:26:55;28.30;99.90
17740;DHT22;8990;33.226;-97.150;2022-09-09T02:29:30;28.30;99.90
17740;DHT22;8990;33.226;-97.150;2022-09-09T02:32:03;28.20;99.90
17740;DHT22;8990;33.226;-97.150;2022-09-09T02:34:40;28.20;99.90
17740;DHT22;8990;33.226;-97.150;2022-09-09T02:37:11;28.20;99.90
17740;DHT22;8990;33.226;-97.150;2022-09-09T02:39:47;28.10;99.90
17740;DHT22;8990;33.226;-97.150;2022-09-09T02:42:20;28.00;99.90
17740;DHT22;8990;33.226;-97.150;2022-09-09T02:44:54;28.00;99.90
17740;DHT22;8990;33.226;-97.150;2022-09-09T02:47:33;28.00;99.90
17740;DHT22;8990;33.226;-97.150;2022-09-09T02:50:13;28.00;99.90
17740;DHT22;8990;33.226;-97.150;2022-09-09T02:53:00;27.90;99.90
17740;DHT22;8990;33.226;-97.150;2022-09-09T02:55:38;27.90;99.90
17740;DHT22;8990;33.226;-97.150;2022-09-09T02:58:13;27.90;99.90
17740;DHT22;8990;33.226;-97.150;2022-09-09T03:00:55;27.80;99.90
17740;DHT22;8990;33.226;-97.150;2022-09-09T03:03:27;27.80;99.90
17740;DHT22;8990;33.226;-97.150;2022-09-09T03:05:58;27.80;99.90
17740;DHT22;8990;33.226;-97.150;2022-09-09T03:08:28;27.80;99.90
17740;DHT22;8990;33.226;-97.150;2022-09-09T03:12:10;27.80;99.90
17740;DHT22;8990;33.226;-97.150;2022-09-09T03:14:41;27.70;99.90
17740;DHT22;8990;33.226;-97.150;2022-09-09T03:17:14;27.70;99.90
17740;DHT22;8990;33.226;-97.150;2022-09-09T03:19:50;27.70;99.90
17740;DHT22;8990;33.226;-97.150;2022-09-09T03:22:22;27.70;99.90
17740;DHT22;8990;33.226;-97.150;2022-09-09T03:24:52;27.60;99.90
17740;DHT22;8990;33.226;-97.150;2022-09-09T03:27:22;27.60;99.90
17740;DHT22;8990;33.226;-97.150;2022-09-09T03:29:53;27.50;99.90
17740;DHT22;8990;33.226;-97.150;2022-09-09T03:32:26;27.50;99.90
17740;DHT22;8990;33.226;-97.150;2022-09-09T03:34:57;27.50;99.90
17740;DHT22;8990;33.226;-97.150;2022-09-09T03:37:26;27.50;99.90
17740;DHT22;8990;33.226;-97.150;2022-09-09T03:39:56;27.50;99.90
17740;DHT22;8990;33.226;-97.150;2022-09-09T03:42:25;27.50;99.90
17740;DHT22;8990;33.226;-97.150;2022-09-09T03:44:56;27.50;99.90
17740;DHT22;8990;33.226;-97.150;2022-09-09T03:47:28;27.50;99.90
17740;DHT22;8990;33.226;-97.150;2022-09-09T03:50:06;27.50;99.90
17740;DHT22;8990;33.226;-97.150;2022-09-09T03:52:42;27.40;99.90
17740;DHT22;8990;33.226;-97.150;2022-09-09T03:55:19;27.40;99.90
17740;DHT22;8990;33.226;-97.150;2022-09-09T03:57:49;27.40;99.90
17740;DHT22;8990;33.226;-97.150;2022-09-09T04:00:19;27.40;99.90
17740;DHT22;8990;33.226;-97.150;2022-09-09T04:02:54;27.40;99.90
17740;DHT22;8990;33.226;-97.150;2022-09-09T04:05:24;27.40;99.90
17740;DHT22;8990;33.226;-97.150;2022-09-09T04:07:54;27.30;99.90
17740;DHT22;8990;33.226;-97.150;2022-09-09T04:10:24;27.30;99.90
17740;DHT22;8990;33.226;-97.150;2022-09-09T04:12:57;27.30;99.90
17740;DHT22;8990;33.226;-97.150;2022-09-09T04:15:26;27.30;99.90
17740;DHT22;8990;33.226;-97.150;2022-09-09T04:17:57;27.20;99.90
17740;DHT22;8990;33.226;-97.150;2022-09-09T04:20:27;27.20;99.90
17740;DHT22;8990;33.226;-97.150;2022-09-09T04:22:57;27.10;99.90
17740;DHT22;8990;33.226;-97.150;2022-09-09T04:25:26;27.00;99.90
17740;DHT22;8990;33.226;-97.150;2022-09-09T04:27:56;27.00;99.90
17740;DHT22;8990;33.226;-97.150;2022-09-09T04:30:25;27.00;99.90
17740;DHT22;8990;33.226;-97.150;2022-09-09T04:32:56;26.90;99.90
17740;DHT22;8990;33.226;-97.150;2022-09-09T04:35:25;26.90;99.90
17740;DHT22;8990;33.226;-97.150;2022-09-09T04:37:56;26.80;99.90
17740;DHT22;8990;33.226;-97.150;2022-09-09T04:40:26;26.80;99.90
17740;DHT22;8990;33.226;-97.150;2022-09-09T04:42:58;26.80;99.90
17740;DHT22;8990;33.226;-97.150;2022-09-09T04:45:27;26.70;99.90
17740;DHT22;8990;33.226;-97.150;2022-09-09T04:47:58;26.70;99.90
17740;DHT22;8990;33.226;-97.150;2022-09-09T04:50:30;26.70;99.90
17740;DHT22;8990;33.226;-97.150;2022-09-09T04:53:00;26.70;99.90
17740;DHT22;8990;33.226;-97.150;2022-09-09T04:55:32;26.70;99.90
17740;DHT22;8990;33.226;-97.150;2022-09-09T04:58:04;26.60;99.90
17740;DHT22;8990;33.226;-97.150;2022-09-09T05:00:34;26.60;99.90
17740;DHT22;8990;33.226;-97.150;2022-09-09T05:03:07;26.60;99.90
17740;DHT22;8990;33.226;-97.150;2022-09-09T05:05:37;26.60;99.90
17740;DHT22;8990;33.226;-97.150;2022-09-09T05:08:07;26.50;99.90
17740;DHT22;8990;33.226;-97.150;2022-09-09T05:10:39;26.50;99.90
17740;DHT22;8990;33.226;-97.150;2022-09-09T05:13:09;26.50;99.90
17740;DHT22;8990;33.226;-97.150;2022-09-09T05:15:39;26.40;99.90
17740;DHT22;8990;33.226;-97.150;2022-09-09T05:18:12;26.40;99.90
17740;DHT22;8990;33.226;-97.150;2022-09-09T05:20:41;26.40;99.90
17740;DHT22;8990;33.226;-97.150;2022-09-09T05:23:11;26.40;99.90
17740;DHT22;8990;33.226;-97.150;2022-09-09T05:25:40;26.30;99.90
17740;DHT22;8990;33.226;-97.150;2022-09-09T05:28:10;26.30;99.90
17740;DHT22;8990;33.226;-97.150;2022-09-09T05:30:41;26.30;99.90
17740;DHT22;8990;33.226;-97.150;2022-09-09T05:33:11;26.30;99.90
17740;DHT22;8990;33.226;-97.150;2022-09-09T05:35:41;26.30;99.90
17740;DHT22;8990;33.226;-97.150;2022-09-09T05:38:10;26.30;99.90
17740;DHT22;8990;33.226;-97.150;2022-09-09T05:40:47;26.20;99.90
17740;DHT22;8990;33.226;-97.150;2022-09-09T05:43:17;26.20;99.90
17740;DHT22;8990;33.226;-97.150;2022-09-09T05:45:47;26.10;99.90
17740;DHT22;8990;33.226;-97.150;2022-09-09T05:48:19;26.10;99.90
17740;DHT22;8990;33.226;-97.150;2022-09-09T05:50:53;26.00;99.90
17740;DHT22;8990;33.226;-97.150;2022-09-09T05:53:23;25.90;99.90
17740;DHT22;8990;33.226;-97.150;2022-09-09T05:55:59;25.90;99.90
17740;DHT22;8990;33.226;-97.150;2022-09-09T05:58:31;25.90;99.90
17740;DHT22;8990;33.226;-97.150;2022-09-09T06:01:05;25.80;99.90
17740;DHT22;8990;33.226;-97.150;2022-09-09T06:03:38;25.80;99.90
17740;DHT22;8990;33.226;-97.150;2022-09-09T06:06:10;25.80;99.90
17740;DHT22;8990;33.226;-97.150;2022-09-09T06:08:41;25.80;99.90
17740;DHT22;8990;33.226;-97.150;2022-09-09T06:11:15;25.80;99.90
17740;DHT22;8990;33.226;-97.150;2022-09-09T06:13:45;25.80;99.90
17740;DHT22;8990;33.226;-97.150;2022-09-09T06:16:16;25.70;99.90
17740;DHT22;8990;33.226;-97.150;2022-09-09T06:18:47;25.60;99.90
17740;DHT22;8990;33.226;-97.150;2022-09-09T06:21:18;25.50;99.90
17740;DHT22;8990;33.226;-97.150;2022-09-09T06:23:48;25.30;99.90
17740;DHT22;8990;33.226;-97.150;2022-09-09T06:26:19;25.20;99.90
17740;DHT22;8990;33.226;-97.150;2022-09-09T06:28:51;25.10;99.90
17740;DHT22;8990;33.226;-97.150;2022-09-09T06:31:23;25.00;99.90
17740;DHT22;8990;33.226;-97.150;2022-09-09T06:33:55;24.90;99.90
17740;DHT22;8990;33.226;-97.150;2022-09-09T06:36:27;24.70;99.90
17740;DHT22;8990;33.226;-97.150;2022-09-09T06:38:56;24.50;99.90
17740;DHT22;8990;33.226;-97.150;2022-09-09T06:41:28;24.40;99.90
17740;DHT22;8990;33.226;-97.150;2022-09-09T06:43:58;24.40;99.90
17740;DHT22;8990;33.226;-97.150;2022-09-09T06:46:38;24.30;99.90
17740;DHT22;8990;33.226;-97.150;2022-09-09T06:49:10;24.40;99.90
17740;DHT22;8990;33.226;-97.150;2022-09-09T06:51:41;24.30;99.90
17740;DHT22;8990;33.226;-97.150;2022-09-09T06:54:13;24.40;99.90
17740;DHT22;8990;33.226;-97.150;2022-09-09T06:56:45;24.50;99.90
17740;DHT22;8990;33.226;-97.150;2022-09-09T06:59:21;24.60;99.90
17740;DHT22;8990;33.226;-97.150;2022-09-09T07:01:54;24.60;99.90
17740;DHT22;8990;33.226;-97.150;2022-09-09T07:04:26;24.70;99.90
17740;DHT22;8990;33.226;-97.150;2022-09-09T07:06:55;24.70;99.90
17740;DHT22;8990;33.226;-97.150;2022-09-09T07:09:26;24.80;99.90
17740;DHT22;8990;33.226;-97.150;2022-09-09T07:11:57;24.80;99.90
17740;DHT22;8990;33.226;-97.150;2022-09-09T07:14:30;24.80;99.90
17740;DHT22;8990;33.226;-97.150;2022-09-09T07:17:03;24.90;99.90
17740;DHT22;8990;33.226;-97.150;2022-09-09T07:19:39;24.90;99.90
17740;DHT22;8990;33.226;-97.150;2022-09-09T07:22:10;24.90;99.90
17740;DHT22;8990;33.226;-97.150;2022-09-09T07:24:40;24.90;99.90
17740;DHT22;8990;33.226;-97.150;2022-09-09T07:27:13;25.00;99.90
17740;DHT22;8990;33.226;-97.150;2022-09-09T07:29:43;25.00;99.90
17740;DHT22;8990;33.226;-97.150;2022-09-09T07:32:13;25.00;99.90
17740;DHT22;8990;33.226;-97.150;2022-09-09T07:34:45;25.00;99.90
17740;DHT22;8990;33.226;-97.150;2022-09-09T07:37:14;25.00;99.90
17740;DHT22;8990;33.226;-97.150;2022-09-09T07:39:45;24.90;99.90
17740;DHT22;8990;33.226;-97.150;2022-09-09T07:42:14;24.90;99.90
17740;DHT22;8990;33.226;-97.150;2022-09-09T07:44:43;24.90;99.90
17740;DHT22;8990;33.226;-97.150;2022-09-09T07:47:16;24.80;99.90
17740;DHT22;8990;33.226;-97.150;2022-09-09T07:49:49;24.80;99.90
17740;DHT22;8990;33.226;-97.150;2022-09-09T07:52:24;24.80;99.90
17740;DHT22;8990;33.226;-97.150;2022-09-09T07:54:57;24.70;99.90
17740;DHT22;8990;33.226;-97.150;2022-09-09T07:57:27;24.70;99.90
17740;DHT22;8990;33.226;-97.150;2022-09-09T07:59:58;24.70;99.90
17740;DHT22;8990;33.226;-97.150;2022-09-09T08:02:28;24.70;99.90
17740;DHT22;8990;33.226;-97.150;2022-09-09T08:05:00;24.70;99.90
17740;DHT22;8990;33.226;-97.150;2022-09-09T08:07:29;24.60;99.90
17740;DHT22;8990;33.226;-97.150;2022-09-09T08:09:59;24.70;99.90
17740;DHT22;8990;33.226;-97.150;2022-09-09T08:12:31;24.60;99.90
17740;DHT22;8990;33.226;-97.150;2022-09-09T08:15:01;24.60;99.90
17740;DHT22;8990;33.226;-97.150;2022-09-09T08:17:33;24.60;99.90
17740;DHT22;8990;33.226;-97.150;2022-09-09T08:20:09;24.50;99.90
17740;DHT22;8990;33.226;-97.150;2022-09-09T08:22:38;24.60;99.90
17740;DHT22;8990;33.226;-97.150;2022-09-09T08:25:09;24.50;99.90
17740;DHT22;8990;33.226;-97.150;2022-09-09T08:27:39;24.50;99.90
17740;DHT22;8990;33.226;-97.150;2022-09-09T08:30:09;24.50;99.90
17740;DHT22;8990;33.226;-97.150;2022-09-09T08:32:38;24.50;99.90
17740;DHT22;8990;33.226;-97.150;2022-09-09T08:35:10;24.50;99.90
17740;DHT22;8990;33.226;-97.150;2022-09-09T08:37:40;24.50;99.90
17740;DHT22;8990;33.226;-97.150;2022-09-09T08:40:17;24.40;99.90
17740;DHT22;8990;33.226;-97.150;2022-09-09T08:42:51;24.40;99.90
17740;DHT22;8990;33.226;-97.150;2022-09-09T08:45:30;24.20;99.90
17740;DHT22;8990;33.226;-97.150;2022-09-09T08:48:13;24.10;99.90
17740;DHT22;8990;33.226;-97.150;2022-09-09T08:50:50;24.00;99.90
17740;DHT22;8990;33.226;-97.150;2022-09-09T08:53:26;23.90;99.90
17740;DHT22;8990;33.226;-97.150;2022-09-09T08:55:59;23.80;99.90
17740;DHT22;8990;33.226;-97.150;2022-09-09T08:58:43;23.80;99.90
17740;DHT22;8990;33.226;-97.150;2022-09-09T09:01:33;23.90;99.90
17740;DHT22;8990;33.226;-97.150;2022-09-09T09:04:26;23.90;99.90
17740;DHT22;8990;33.226;-97.150;2022-09-09T09:07:09;23.90;99.90
17740;DHT22;8990;33.226;-97.150;2022-09-09T09:09:55;24.00;99.90
17740;DHT22;8990;33.226;-97.150;2022-09-09T09:12:32;23.90;99.90
17740;DHT22;8990;33.226;-97.150;2022-09-09T09:15:14;23.90;99.90
17740;DHT22;8990;33.226;-97.150;2022-09-09T09:17:47;23.80;99.90
17740;DHT22;8990;33.226;-97.150;2022-09-09T09:20:20;23.80;99.90
17740;DHT22;8990;33.226;-97.150;2022-09-09T09:22:55;23.80;99.90
17740;DHT22;8990;33.226;-97.150;2022-09-09T09:25:33;23.70;99.90
17740;DHT22;8990;33.226;-97.150;2022-09-09T09:28:12;23.60;99.90
17740;DHT22;8990;33.226;-97.150;2022-09-09T09:30:50;23.60;99.90
17740;DHT22;8990;33.226;-97.150;2022-09-09T09:33:25;23.50;99.90
17740;DHT22;8990;33.226;-97.150;2022-09-09T09:35:57;23.40;99.90
17740;DHT22;8990;33.226;-97.150;2022-09-09T09:38:29;23.30;99.90
17740;DHT22;8990;33.226;-97.150;2022-09-09T09:41:00;23.20;99.90
17740;DHT22;8990;33.226;-97.150;2022-09-09T09:43:32;23.10;99.90
17740;DHT22;8990;33.226;-97.150;2022-09-09T09:46:05;23.00;99.90
17740;DHT22;8990;33.226;-97.150;2022-09-09T09:48:35;23.00;99.90
17740;DHT22;8990;33.226;-97.150;2022-09-09T09:51:09;22.90;99.90
17740;DHT22;8990;33.226;-97.150;2022-09-09T09:53:41;22.70;99.90
17740;DHT22;8990;33.226;-97.150;2022-09-09T09:56:14;22.70;99.90
17740;DHT22;8990;33.226;-97.150;2022-09-09T09:58:50;22.70;99.90
17740;DHT22;8990;33.226;-97.150;2022-09-09T10:01:27;22.60;99.90
17740;DHT22;8990;33.226;-97.150;2022-09-09T10:03:59;22.60;99.90
17740;DHT22;8990;33.226;-97.150;2022-09-09T10:06:31;22.60;99.90
17740;DHT22;8990;33.226;-97.150;2022-09-09T10:09:03;22.60;99.90
17740;DHT22;8990;33.226;-97.150;2022-09-09T10:11:43;22.50;99.90
17740;DHT22;8990;33.226;-97.150;2022-09-09T10:14:19;22.40;99.90
17740;DHT22;8990;33.226;-97.150;2022-09-09T10:17:01;22.40;99.90
17740;DHT22;8990;33.226;-97.150;2022-09-09T10:19:34;22.30;99.90
17740;DHT22;8990;33.226;-97.150;2022-09-09T10:22:10;22.30;99.90
17740;DHT22;8990;33.226;-97.150;2022-09-09T10:25:01;22.30;99.90
17740;DHT22;8990;33.226;-97.150;2022-09-09T10:27:41;22.20;99.90
17740;DHT22;8990;33.226;-97.150;2022-09-09T10:30:18;22.20;99.90
17740;DHT22;8990;33.226;-97.150;2022-09-09T10:32:49;22.20;99.90
17740;DHT22;8990;33.226;-97.150;2022-09-09T10:35:29;22.10;99.90
17740;DHT22;8990;33.226;-97.150;2022-09-09T10:41:18;22.20;99.90
17740;DHT22;8990;33.226;-97.150;2022-09-09T10:44:18;22.20;99.90
17740;DHT22;8990;33.226;-97.150;2022-09-09T10:47:15;22.20;99.90
17740;DHT22;8990;33.226;-97.150;2022-09-09T10:50:03;22.20;99.90
17740;DHT22;8990;33.226;-97.150;2022-09-09T10:52:40;22.20;99.90
17740;DHT22;8990;33.226;-97.150;2022-09-09T10:55:18;22.30;99.90
17740;DHT22;8990;33.226;-97.150;2022-09-09T10:57:51;22.30;99.90
17740;DHT22;8990;33.226;-97.150;2022-09-09T11:00:22;22.30;99.90
17740;DHT22;8990;33.226;-97.150;2022-09-09T11:02:55;22.20;99.90
17740;DHT22;8990;33.226;-97.150;2022-09-09T11:05:28;22.10;99.90
17740;DHT22;8990;33.226;-97.150;2022-09-09T11:08:04;22.10;99.90
17740;DHT22;8990;33.226;-97.150;2022-09-09T11:10:39;22.00;99.90
17740;DHT22;8990;33.226;-97.150;2022-09-09T11:13:15;21.90;99.90
17740;DHT22;8990;33.226;-97.150;2022-09-09T11:15:50;21.90;99.90
17740;DHT22;8990;33.226;-97.150;2022-09-09T11:18:21;22.00;99.90
17740;DHT22;8990;33.226;-97.150;2022-09-09T11:20:56;22.00;99.90
17740;DHT22;8990;33.226;-97.150;2022-09-09T11:23:33;22.00;99.90
17740;DHT22;8990;33.226;-97.150;2022-09-09T11:26:11;22.00;99.90
17740;DHT22;8990;33.226;-97.150;2022-09-09T11:28:54;22.10;99.90
17740;DHT22;8990;33.226;-97.150;2022-09-09T11:31:43;22.20;99.90
17740;DHT22;8990;33.226;-97.150;2022-09-09T11:34:23;22.20;99.90
17740;DHT22;8990;33.226;-97.150;2022-09-09T11:37:03;22.10;99.90
17740;DHT22;8990;33.226;-97.150;2022-09-09T11:39:44;22.10;99.90
17740;DHT22;8990;33.226;-97.150;2022-09-09T11:42:18;22.00;99.90
17740;DHT22;8990;33.226;-97.150;2022-09-09T11:44:50;22.00;99.90
17740;DHT22;8990;33.226;-97.150;2022-09-09T11:47:23;22.00;99.90
17740;DHT22;8990;33.226;-97.150;2022-09-09T11:50:09;22.00;99.90
17740;DHT22;8990;33.226;-97.150;2022-09-09T11:52:41;22.10;99.90
17740;DHT22;8990;33.226;-97.150;2022-09-09T11:55:25;22.20;99.90
17740;DHT22;8990;33.226;-97.150;2022-09-09T11:57:58;22.20;99.90
17740;DHT22;8990;33.226;-97.150;2022-09-09T12:00:33;22.20;99.90
17740;DHT22;8990;33.226;-97.150;2022-09-09T12:03:03;22.30;99.90
17740;DHT22;8990;33.226;-97.150;2022-09-09T12:05:38;22.30;99.90
17740;DHT22;8990;33.226;-97.150;2022-09-09T12:08:09;22.30;99.90
17740;DHT22;8990;33.226;-97.150;2022-09-09T12:10:40;22.30;99.90
17740;DHT22;8990;33.226;-97.150;2022-09-09T12:13:17;22.40;99.90
17740;DHT22;8990;33.226;-97.150;2022-09-09T12:15:51;22.40;99.90
17740;DHT22;8990;33.226;-97.150;2022-09-09T12:18:23;22.50;99.90
17740;DHT22;8990;33.226;-97.150;2022-09-09T12:20:58;22.50;99.90
17740;DHT22;8990;33.226;-97.150;2022-09-09T12:23:38;22.60;99.90
17740;DHT22;8990;33.226;-97.150;2022-09-09T12:26:25;22.60;99.90
17740;DHT22;8990;33.226;-97.150;2022-09-09T12:29:12;22.70;99.90
17740;DHT22;8990;33.226;-97.150;2022-09-09T12:31:50;22.70;99.90
17740;DHT22;8990;33.226;-97.150;2022-09-09T12:34:30;22.80;99.90
17740;DHT22;8990;33.226;-97.150;2022-09-09T12:37:04;22.80;99.90
17740;DHT22;8990;33.226;-97.150;2022-09-09T12:39:38;22.90;99.90
17740;DHT22;8990;33.226;-97.150;2022-09-09T12:42:17;23.00;99.90
17740;DHT22;8990;33.226;-97.150;2022-09-09T12:44:52;23.00;99.90
17740;DHT22;8990;33.226;-97.150;2022-09-09T12:47:27;23.10;99.90
17740;DHT22;8990;33.226;-97.150;2022-09-09T12:50:00;23.10;99.90
17740;DHT22;8990;33.226;-97.150;2022-09-09T12:52:31;23.20;99.90
17740;DHT22;8990;33.226;-97.150;2022-09-09T12:55:04;23.30;99.90
17740;DHT22;8990;33.226;-97.150;2022-09-09T12:57:36;23.40;99.90
17740;DHT22;8990;33.226;-97.150;2022-09-09T13:00:12;23.50;99.90
17740;DHT22;8990;33.226;-97.150;2022-09-09T13:02:50;23.60;99.90
17740;DHT22;8990;33.226;-97.150;2022-09-09T13:05:22;23.60;99.90
17740;DHT22;8990;33.226;-97.150;2022-09-09T13:07:59;23.60;99.90
17740;DHT22;8990;33.226;-97.150;2022-09-09T13:10:31;23.70;99.90
17740;DHT22;8990;33.226;-97.150;2022-09-09T13:13:02;23.80;99.90
17740;DHT22;8990;33.226;-97.150;2022-09-09T13:15:32;23.90;99.90
17740;DHT22;8990;33.226;-97.150;2022-09-09T13:18:07;24.00;99.90
17740;DHT22;8990;33.226;-97.150;2022-09-09T13:20:46;24.00;99.90
17740;DHT22;8990;33.226;-97.150;2022-09-09T13:23:16;24.10;99.90
17740;DHT22;8990;33.226;-97.150;2022-09-09T13:25:54;24.20;99.90
17740;DHT22;8990;33.226;-97.150;2022-09-09T13:28:25;24.30;99.90
17740;DHT22;8990;33.226;-97.150;2022-09-09T13:30:59;24.40;99.90
17740;DHT22;8990;33.226;-97.150;2022-09-09T13:33:35;24.50;99.90
17740;DHT22;8990;33.226;-97.150;2022-09-09T13:36:06;24.60;99.90
17740;DHT22;8990;33.226;-97.150;2022-09-09T13:38:37;24.70;99.90
17740;DHT22;8990;33.226;-97.150;2022-09-09T13:41:08;24.90;99.90
17740;DHT22;8990;33.226;-97.150;2022-09-09T13:43:45;24.90;99.90
17740;DHT22;8990;33.226;-97.150;2022-09-09T13:46:28;25.10;99.90
17740;DHT22;8990;33.226;-97.150;2022-09-09T13:49:02;25.20;99.90
17740;DHT22;8990;33.226;-97.150;2022-09-09T13:51:37;25.20;99.90
17740;DHT22;8990;33.226;-97.150;2022-09-09T13:54:09;25.30;99.90
17740;DHT22;8990;33.226;-97.150;2022-09-09T13:56:39;25.40;99.90
17740;DHT22;8990;33.226;-97.150;2022-09-09T13:59:11;25.50;99.90
17740;DHT22;8990;33.226;-97.150;2022-09-09T14:01:42;25.60;99.90
17740;DHT22;8990;33.226;-97.150;2022-09-09T14:04:13;25.60;99.90
17740;DHT22;8990;33.226;-97.150;2022-09-09T14:06:42;25.80;99.90
17740;DHT22;8990;33.226;-97.150;2022-09-09T14:09:13;25.80;99.90
17740;DHT22;8990;33.226;-97.150;2022-09-09T14:11:43;25.90;99.90
17740;DHT22;8990;33.226;-97.150;2022-09-09T14:14:12;26.00;99.90
17740;DHT22;8990;33.226;-97.150;2022-09-09T14:16:41;26.10;99.90
17740;DHT22;8990;33.226;-97.150;2022-09-09T14:19:12;26.20;99.90
17740;DHT22;8990;33.226;-97.150;2022-09-09T14:21:42;26.30;99.90
17740;DHT22;8990;33.226;-97.150;2022-09-09T14:24:11;26.40;99.90
17740;DHT22;8990;33.226;-97.150;2022-09-09T14:26:41;26.50;99.90
17740;DHT22;8990;33.226;-97.150;2022-09-09T14:29:09;26.60;99.90
17740;DHT22;8990;33.226;-97.150;2022-09-09T14:31:40;26.70;99.90
17740;DHT22;8990;33.226;-97.150;2022-09-09T14:34:09;26.80;99.90
17740;DHT22;8990;33.226;-97.150;2022-09-09T14:36:40;26.90;99.90
17740;DHT22;8990;33.226;-97.150;2022-09-09T14:39:09;27.00;99.90
17740;DHT22;8990;33.226;-97.150;2022-09-09T14:41:39;26.90;99.90
17740;DHT22;8990;33.226;-97.150;2022-09-09T14:44:09;27.00;99.90
17740;DHT22;8990;33.226;-97.150;2022-09-09T14:46:39;27.20;99.90
17740;DHT22;8990;33.226;-97.150;2022-09-09T14:49:09;27.20;99.90
17740;DHT22;8990;33.226;-97.150;2022-09-09T14:51:41;27.30;99.90
17740;DHT22;8990;33.226;-97.150;2022-09-09T14:54:11;27.30;99.90
17740;DHT22;8990;33.226;-97.150;2022-09-09T14:56:41;27.30;99.90
17740;DHT22;8990;33.226;-97.150;2022-09-09T14:59:11;27.40;99.90
17740;DHT22;8990;33.226;-97.150;2022-09-09T15:01:41;27.40;99.90
17740;DHT22;8990;33.226;-97.150;2022-09-09T15:04:12;27.60;99.90
17740;DHT22;8990;33.226;-97.150;2022-09-09T15:06:45;27.60;99.90
17740;DHT22;8990;33.226;-97.150;2022-09-09T15:09:15;27.70;99.90
17740;DHT22;8990;33.226;-97.150;2022-09-09T15:11:45;27.70;99.90
17740;DHT22;8990;33.226;-97.150;2022-09-09T15:14:14;27.80;99.90
17740;DHT22;8990;33.226;-97.150;2022-09-09T15:16:44;27.80;99.90
17740;DHT22;8990;33.226;-97.150;2022-09-09T15:19:13;27.90;99.90
17740;DHT22;8990;33.226;-97.150;2022-09-09T15:21:44;27.90;99.90
17740;DHT22;8990;33.226;-97.150;2022-09-09T15:24:13;27.90;99.90
17740;DHT22;8990;33.226;-97.150;2022-09-09T15:26:43;28.00;99.90
17740;DHT22;8990;33.226;-97.150;2022-09-09T15:29:12;28.00;99.90
17740;DHT22;8990;33.226;-97.150;2022-09-09T15:31:41;28.10;99.90
17740;DHT22;8990;33.226;-97.150;2022-09-09T15:34:10;28.20;99.90
17740;DHT22;8990;33.226;-97.150;2022-09-09T15:36:42;28.20;99.90
17740;DHT22;8990;33.226;-97.150;2022-09-09T15:39:15;28.30;99.90
17740;DHT22;8990;33.226;-97.150;2022-09-09T15:41:46;28.30;99.90
17740;DHT22;8990;33.226;-97.150;2022-09-09T15:44:15;28.40;99.90
17740;DHT22;8990;33.226;-97.150;2022-09-09T15:46:48;28.50;99.90
17740;DHT22;8990;33.226;-97.150;2022-09-09T15:49:19;28.60;99.90
17740;DHT22;8990;33.226;-97.150;2022-09-09T15:51:52;28.60;99.90
17740;DHT22;8990;33.226;-97.150;2022-09-09T15:54:23;28.80;99.90
17740;DHT22;8990;33.226;-97.150;2022-09-09T15:56:54;28.80;99.90
17740;DHT22;8990;33.226;-97.150;2022-09-09T15:59:24;28.90;99.90
17740;DHT22;8990;33.226;-97.150;2022-09-09T16:01:54;29.00;99.90